Time;durP1;ratioP1;P1;durP2;ratioP2;P2;SDS_P1;SDS_P2;PMS_P1;PMS_P2;Temp;Humidity;BMP_temperature;BMP_pressure;BME280_temperature;BME280_humidity;BME280_pressure;Samples;Min_cycle;Max_cycle;Signal;HPM_P1;HPM_P2
2024/02/28 08:34:10;;;;;;;8.40;6.00;;;;;;;8.10;88.23;99308.72;5192368;27;20572;-85
2024/02/28 08:36:38;;;;;;;8.23;6.03;;;;;;;9.13;85.48;99339.13;5172956;27;39567;-87
2024/02/28 08:39:05;;;;;;;6.97;5.43;;;;;;;9.89;79.85;99351.97;5173527;27;40766;-85
2024/02/28 08:41:34;;;;;;;7.53;5.90;;;;;;;10.83;76.53;99350.50;5173008;27;42899;-87
2024/02/28 08:44:02;;;;;;;7.53;5.40;;;;;;;13.11;66.98;99390.66;5173311;27;42333;-88
2024/02/28 08:46:30;;;;;;;5.57;4.73;;;;;;;15.44;59.45;99396.72;5173120;27;39873;-86
2024/02/28 08:48:57;;;;;;;6.13;4.77;;;;;;;18.62;48.23;99445.28;5173576;27;41049;-87
2024/02/28 08:51:27;;;;;;;5.97;5.37;;;;;;;21.30;42.49;99469.03;5190290;27;43335;-85
2024/02/28 08:53:55;;;;;;;5.67;5.13;;;;;;;23.23;38.99;99477.25;5195170;27;42837;-83
2024/02/28 08:56:22;;;;;;;5.13;4.63;;;;;;;24.49;35.96;99481.66;5190428;27;40102;-85
2024/02/28 08:58:50;;;;;;;5.07;4.67;;;;;;;23.50;34.87;99483.41;5192741;27;40687;-86
2024/02/28 09:01:18;;;;;;;5.73;5.17;;;;;;;22.65;34.68;99477.00;5194190;27;44053;-86
2024/02/28 09:03:45;;;;;;;6.10;5.50;;;;;;;21.22;34.37;99487.78;5194797;27;42403;-85
2024/02/28 09:06:13;;;;;;;5.77;5.17;;;;;;;22.15;35.86;99476.75;5177886;27;40197;-87
2024/02/28 09:09:01;;;;;;;5.60;4.93;;;;;;;24.56;32.19;99501.66;5177060;27;40489;-92
2024/02/28 09:11:28;;;;;;;5.07;4.57;;;;;;;27.08;30.82;99493.13;5176007;27;43925;-85
2024/02/28 09:13:56;;;;;;;4.38;3.97;;;;;;;29.47;28.03;99498.25;5174830;27;42789;-89
2024/02/28 09:16:23;;;;;;;4.80;4.30;;;;;;;31.26;26.40;99503.06;5172137;27;38501;-87
2024/02/28 09:18:51;;;;;;;4.07;3.78;;;;;;;32.61;23.63;99498.50;5190041;27;42889;-89
2024/02/28 09:21:18;;;;;;;4.35;3.95;;;;;;;33.93;22.36;99521.94;5191018;27;41433;-88
2024/02/28 09:23:46;;;;;;;4.70;4.30;;;;;;;34.92;21.16;99519.47;5168956;27;41616;-92
2024/02/28 09:26:16;;;;;;;4.53;4.13;;;;;;;35.63;21.07;99531.34;5151780;27;39062;-87
2024/02/28 09:28:44;;;;;;;4.65;4.22;;;;;;;35.56;19.18;99541.66;5172213;27;41635;-89
2024/02/28 09:31:12;;;;;;;4.28;3.88;;;;;;;34.54;19.82;99528.09;5172998;27;43012;-87
2024/02/28 09:33:40;;;;;;;3.58;3.28;;;;;;;33.56;21.18;99516.44;5190343;27;42195;-87
2024/02/28 09:36:07;;;;;;;4.05;3.65;;;;;;;33.23;20.67;99529.66;5172701;27;39168;-87
2024/02/28 09:38:35;;;;;;;4.55;4.15;;;;;;;32.72;21.93;99511.53;5171836;27;40988;-86
2024/02/28 09:41:03;;;;;;;4.60;4.20;;;;;;;32.83;22.13;99519.88;5171854;27;42055;-84
2024/02/28 09:43:38;;;;;;;4.07;3.78;;;;;;;32.60;22.22;99526.97;5167873;27;41302;-85
2024/02/28 09:46:06;;;;;;;4.50;4.10;;;;;;;31.55;21.79;99520.88;5158358;27;39276;-87
2024/02/28 09:48:34;;;;;;;4.47;4.07;;;;;;;30.51;22.62;99489.78;5157966;27;40655;-87
2024/02/28 09:51:01;;;;;;;5.05;4.65;;;;;;;28.88;24.41;99498.66;5175616;27;43841;-85
2024/02/28 09:53:29;;;;;;;5.07;4.57;;;;;;;27.15;25.25;99490.53;5176615;27;43107;-84
2024/02/28 09:55:56;;;;;;;5.87;5.27;;;;;;;25.61;26.98;99481.63;5175067;27;39381;-83
2024/02/28 09:58:25;;;;;;;5.87;5.27;;;;;;;24.48;28.79;99469.13;5157797;27;40833;-82
2024/02/28 10:01:02;;;;;;;6.23;5.63;;;;;;;24.89;29.03;99477.22;5176015;27;41766;-83
2024/02/28 10:03:32;;;;;;;5.07;4.60;;;;;;;26.59;26.48;99479.13;5158662;27;41326;-83
2024/02/28 10:05:59;;;;;;;4.40;4.00;;;;;;;28.33;24.82;99498.53;5176111;27;41025;-83
2024/02/28 10:08:27;;;;;;;5.05;4.55;;;;;;;29.86;22.97;99492.13;5159426;27;42082;-85
2024/02/28 10:10:55;;;;;;;4.90;3.88;;;;;;;31.67;21.88;99510.97;5158139;27;41797;-83
2024/02/28 10:13:23;;;;;;;4.30;3.90;;;;;;;33.36;20.69;99496.59;5158902;27;43384;-83
2024/02/28 10:15:51;;;;;;;3.90;3.55;;;;;;;34.11;20.63;99516.44;5158687;27;39722;-85
2024/02/28 10:18:21;;;;;;;4.20;3.80;;;;;;;34.02;20.53;99517.81;5175937;27;42064;-85
2024/02/28 10:20:49;;;;;;;4.10;3.80;;;;;;;34.17;19.84;99526.50;5175773;27;41484;-83
2024/02/28 10:23:17;;;;;;;3.80;3.38;;;;;;;35.36;18.71;99536.50;5158300;27;41384;-83
2024/02/28 10:25:46;;;;;;;3.67;3.38;;;;;;;36.46;18.21;99541.94;5175560;27;40058;-83
2024/02/28 10:28:14;;;;;;;3.90;3.60;;;;;;;37.17;17.63;99529.41;5176409;27;41773;-83
2024/02/28 10:30:43;;;;;;;3.75;3.45;;;;;;;37.56;17.54;99540.47;5153058;27;42518;-84
2024/02/28 10:33:14;;;;;;;4.30;3.90;;;;;;;37.71;17.27;99549.84;5152455;27;42438;-83
2024/02/28 10:35:44;;;;;;;3.70;3.40;;;;;;;37.80;16.82;99535.59;5153536;27;38880;-90
2024/02/28 10:38:13;;;;;;;3.72;3.42;;;;;;;37.88;16.62;99535.97;5136351;27;40867;-87
2024/02/28 10:40:47;;;;;;;4.53;3.35;;;;;;;38.28;16.31;99555.00;5153300;27;43289;-89
2024/02/28 10:43:23;;;;;;;3.40;3.10;;;;;;;38.25;16.23;99549.16;5136611;27;42406;-92
2024/02/28 10:45:52;;;;;;;3.38;3.08;;;;;;;38.28;16.55;99549.47;5141577;27;40323;-91
2024/02/28 10:48:21;;;;;;;3.40;3.10;;;;;;;37.63;15.74;99557.75;5157065;27;41927;-87
2024/02/28 10:50:54;;;;;;;3.20;2.90;;;;;;;37.50;16.10;99541.47;5174293;27;41620;-91
2024/02/28 10:53:23;;;;;;;3.08;2.78;;;;;;;37.12;16.20;99550.53;5157495;27;41123;-89
2024/02/28 10:55:57;;;;;;;2.75;2.55;;;;;;;36.78;16.79;99550.53;5173491;27;39287;-89
2024/02/28 10:58:26;;;;;;;2.67;2.47;;;;;;;36.02;16.39;99550.94;5157909;27;40693;-89
2024/02/28 11:00:54;;;;;;;2.90;2.60;;;;;;;35.90;16.20;99559.25;5159643;27;42548;-85
2024/02/28 11:03:22;;;;;;;2.92;2.63;;;;;;;35.76;17.06;99541.28;5175182;27;40754;-91
2024/02/28 11:05:52;;;;;;;2.80;2.60;;;;;;;35.74;16.21;99559.94;5158045;27;39020;-91
2024/02/28 11:08:24;;;;;;;2.63;2.42;;;;;;;35.52;16.16;99563.34;5158766;27;41078;-90
2024/02/28 11:10:56;;;;;;;3.22;2.95;;;;;;;35.14;16.69;99566.53;5172566;27;42855;-91
2024/02/28 11:13:24;;;;;;;4.57;4.18;;;;;;;35.10;16.90;99565.34;5153865;27;42392;-88
2024/02/28 11:15:52;;;;;;;3.28;2.97;;;;;;;35.67;16.77;99548.22;5137195;27;39271;-90
2024/02/28 11:18:20;;;;;;;3.00;2.58;;;;;;;36.41;16.04;99550.09;5174761;27;42011;-85
2024/02/28 11:20:50;;;;;;;3.40;2.92;;;;;;;36.68;15.15;99578.78;5156180;27;41816;-86
2024/02/28 11:23:19;;;;;;;3.38;3.08;;;;;;;35.77;16.54;99521.75;5156423;27;42198;-85
2024/02/28 11:25:47;;;;;;;2.50;2.30;;;;;;;35.96;16.93;99536.22;5156421;27;39018;-85
2024/02/28 11:28:16;;;;;;;3.22;2.92;;;;;;;36.66;16.22;99542.28;5174853;27;41776;-88
2024/02/28 11:30:44;;;;;;;3.08;2.80;;;;;;;37.08;15.49;99561.28;5170424;27;41835;-82
2024/02/28 11:33:11;;;;;;;2.88;2.65;;;;;;;37.07;16.17;99543.03;5184263;27;42884;-82
2024/02/28 11:35:39;;;;;;;2.88;2.60;;;;;;;37.03;15.05;99552.91;5175382;27;40053;-85
2024/02/28 11:38:10;;;;;;;3.00;2.70;;;;;;;36.73;16.29;99557.88;5157670;27;42454;-86
2024/02/28 11:40:38;;;;;;;3.35;3.10;;;;;;;35.79;16.92;99535.31;5156301;27;42102;-85
2024/02/28 11:43:06;;;;;;;3.10;2.80;;;;;;;34.84;17.55;99524.50;5173120;27;42434;-87
2024/02/28 11:45:41;;;;;;;3.65;3.35;;;;;;;33.98;18.54;99511.94;5156458;27;38508;-87
2024/02/28 11:48:08;;;;;;;2.90;2.70;;;;;;;33.84;18.71;99519.53;5172194;27;42996;-86
2024/02/28 11:50:39;;;;;;;3.80;3.50;;;;;;;34.63;17.85;99533.25;5156267;27;41751;-88
2024/02/28 11:53:06;;;;;;;3.17;2.88;;;;;;;35.94;16.73;99539.22;5155524;27;41189;-86
2024/02/28 11:55:34;;;;;;;3.00;2.80;;;;;;;37.31;16.03;99552.00;5156163;27;39007;-86
2024/02/28 11:58:03;;;;;;;3.13;2.90;;;;;;;38.49;15.38;99539.44;5173024;27;41993;-85
2024/02/28 12:00:31;;;;;;;3.58;3.03;;;;;;;39.53;15.17;99538.16;5175622;27;42454;-86
2024/02/28 12:03:05;;;;;;;3.50;2.88;;;;;;;39.76;13.99;99540.50;5156672;27;44090;-87
2024/02/28 12:05:32;;;;;;;3.13;2.88;;;;;;;40.44;13.89;99538.56;5157530;27;39729;-85
2024/02/28 12:07:59;;;;;;;3.30;3.05;;;;;;;40.97;12.86;99561.44;5175539;27;43002;-86
2024/02/28 12:10:27;;;;;;;3.42;3.13;;;;;;;41.27;13.35;99546.75;5156665;27;42423;-91
2024/02/28 12:13:00;;;;;;;3.13;2.83;;;;;;;41.28;12.67;99549.25;5156781;27;42205;-85
2024/02/28 12:15:31;;;;;;;3.38;3.08;;;;;;;41.22;12.65;99550.34;5154568;27;39757;-87
2024/02/28 12:17:58;;;;;;;3.58;3.10;;;;;;;40.42;12.90;99536.09;5155862;27;42003;-85
2024/02/28 12:20:26;;;;;;;3.15;2.88;;;;;;;39.71;14.33;99533.00;5151807;27;42788;-84
2024/02/28 12:22:54;;;;;;;3.30;3.00;;;;;;;39.36;15.11;99505.03;5134566;27;41766;-90
2024/02/28 12:25:21;;;;;;;3.00;2.72;;;;;;;39.34;14.59;99521.94;5148489;27;39895;-85
2024/02/28 12:27:49;;;;;;;3.17;2.97;;;;;;;39.58;14.34;99510.47;5146925;27;42206;-86
2024/02/28 12:30:17;;;;;;;3.08;2.83;;;;;;;40.46;13.84;99522.47;5172502;27;43649;-86
2024/02/28 12:32:46;;;;;;;2.70;2.50;;;;;;;40.65;12.70;99520.84;5154832;27;42691;-86
2024/02/28 12:35:14;;;;;;;2.67;2.47;;;;;;;40.89;13.99;99512.84;5151637;27;40329;-88
2024/02/28 12:37:41;;;;;;;3.10;2.80;;;;;;;41.50;13.36;99508.03;5134202;27;41119;-86
2024/02/28 12:40:10;;;;;;;3.47;2.58;;;;;;;41.92;13.55;99498.44;5141222;27;42935;-86
2024/02/28 12:42:37;;;;;;;2.83;2.63;;;;;;;42.04;13.10;99501.75;5134780;27;41638;-87
2024/02/28 12:45:06;;;;;;;2.60;2.40;;;;;;;42.15;12.98;99508.94;5144099;27;40485;-87
2024/02/28 12:47:33;;;;;;;2.78;2.58;;;;;;;42.07;12.18;99506.75;5156592;27;40918;-86
2024/02/28 12:50:03;;;;;;;2.75;2.55;;;;;;;41.64;12.51;99508.31;5173256;27;43705;-86
2024/02/28 12:52:30;;;;;;;2.40;2.20;;;;;;;40.93;12.67;99494.47;5155714;27;42500;-86
2024/02/28 12:54:58;;;;;;;2.65;2.45;;;;;;;40.60;13.87;99476.41;5172307;27;40475;-86
2024/02/28 12:57:25;;;;;;;2.42;2.28;;;;;;;40.67;13.72;99476.97;5172100;27;41708;-88
2024/02/28 12:59:53;;;;;;;2.50;2.30;;;;;;;40.83;13.83;99481.44;5155142;27;42668;-89
2024/02/28 13:02:21;;;;;;;2.78;2.53;;;;;;;40.72;13.29;99485.31;5156160;27;42882;-84
2024/02/28 13:04:49;;;;;;;3.45;2.60;;;;;;;40.25;13.30;99465.22;5155552;27;38868;-85
2024/02/28 13:07:21;;;;;;;2.60;2.40;;;;;;;38.43;13.82;99465.78;5153896;27;40834;-87
2024/02/28 13:09:49;;;;;;;2.50;2.30;;;;;;;36.94;14.50;99464.13;5172158;27;43170;-85
2024/02/28 13:12:16;;;;;;;2.80;2.60;;;;;;;36.63;15.23;99454.47;5173698;27;42503;-87
2024/02/28 13:14:44;;;;;;;3.13;2.85;;;;;;;36.65;14.44;99449.53;5155895;27;39328;-84
2024/02/28 13:17:11;;;;;;;2.83;2.55;;;;;;;36.83;14.87;99458.69;5173640;27;41949;-86
2024/02/28 13:19:39;;;;;;;3.10;2.80;;;;;;;36.80;14.77;99448.16;5157354;27;43395;-83
2024/02/28 13:22:07;;;;;;;2.78;2.50;;;;;;;36.19;14.79;99461.66;5155372;27;41640;-87
2024/02/28 13:24:36;;;;;;;4.35;2.63;;;;;;;35.98;15.71;99451.31;5138337;27;38844;-84
2024/02/28 13:27:04;;;;;;;3.30;2.80;;;;;;;36.23;15.22;99448.22;5154363;27;40896;-85
2024/02/28 13:29:32;;;;;;;4.18;2.72;;;;;;;35.98;14.78;99432.84;5160066;27;44310;-87
2024/02/28 13:31:59;;;;;;;2.88;2.60;;;;;;;35.54;15.11;99439.09;5154045;27;42372;-85
2024/02/28 13:34:27;;;;;;;3.55;2.50;;;;;;;35.22;15.54;99436.75;5153357;27;38817;-86
2024/02/28 13:36:54;;;;;;;3.13;2.83;;;;;;;35.32;15.89;99447.19;5148251;27;40522;-83
2024/02/28 13:39:23;;;;;;;2.88;2.67;;;;;;;35.43;16.36;99445.47;5136850;27;42830;-86
2024/02/28 13:41:52;;;;;;;2.50;2.30;;;;;;;35.34;16.58;99416.66;5169609;27;42561;-83
2024/02/28 13:44:20;;;;;;;2.80;2.60;;;;;;;35.16;15.60;99426.69;5157311;27;38910;-83
2024/02/28 13:46:47;;;;;;;2.65;2.45;;;;;;;34.91;15.65;99434.38;5174668;27;41872;-84
2024/02/28 13:49:16;;;;;;;2.90;2.70;;;;;;;34.35;16.39;99424.72;5174906;27;43638;-85
2024/02/28 13:51:43;;;;;;;2.78;2.55;;;;;;;34.11;16.10;99428.47;5156876;27;43542;-84
2024/02/28 13:54:11;;;;;;;2.47;2.28;;;;;;;34.11;16.34;99428.47;5157403;27;40472;-84
2024/02/28 13:56:39;;;;;;;2.80;2.60;;;;;;;33.98;16.36;99415.75;5174412;27;41948;-83
2024/02/28 13:59:09;;;;;;;3.67;3.38;;;;;;;33.84;15.90;99412.34;5174605;27;42280;-86
2024/02/28 14:01:37;;;;;;;3.45;2.50;;;;;;;33.86;16.39;99420.38;5159148;27;43190;-87
2024/02/28 14:04:05;;;;;;;2.40;2.20;;;;;;;33.77;15.70;99424.47;5159091;27;39073;-88
2024/02/28 14:06:32;;;;;;;3.35;2.35;;;;;;;33.37;16.16;99408.50;5175956;27;42673;-84
2024/02/28 14:09:00;;;;;;;2.63;2.28;;;;;;;33.39;16.57;99411.00;5164413;27;41579;-82
2024/02/28 14:11:27;;;;;;;2.00;1.80;;;;;;;33.36;16.92;99403.25;5168545;27;41120;-84
2024/02/28 14:13:55;;;;;;;4.00;2.63;;;;;;;33.26;16.41;99392.78;5157061;27;40233;-83
2024/02/28 14:16:24;;;;;;;2.70;2.47;;;;;;;33.25;16.91;99391.13;5158543;27;41298;-83
2024/02/28 14:18:52;;;;;;;2.25;2.05;;;;;;;33.27;17.02;99393.59;5175803;27;43199;-83
2024/02/28 14:21:22;;;;;;;2.33;2.13;;;;;;;33.11;17.11;99382.16;5174469;27;41086;-83
2024/02/28 14:23:49;;;;;;;2.63;2.42;;;;;;;33.08;16.80;99382.63;5174391;27;38924;-83
2024/02/28 14:26:17;;;;;;;3.20;2.10;;;;;;;32.93;17.46;99367.59;5174191;27;41673;-86
2024/02/28 14:28:45;;;;;;;2.67;2.47;;;;;;;32.87;17.00;99388.56;5174121;27;42188;-85
2024/02/28 14:31:12;;;;;;;2.28;2.08;;;;;;;32.60;17.21;99376.13;5157486;27;42017;-88
2024/02/28 14:33:41;;;;;;;2.78;2.58;;;;;;;32.29;17.28;99374.28;5156550;27;40526;-89
2024/02/28 14:36:08;;;;;;;2.40;2.20;;;;;;;31.97;17.16;99376.19;5156708;27;42706;-85
2024/02/28 14:38:36;;;;;;;2.40;2.17;;;;;;;31.57;17.63;99370.06;5153178;27;41649;-86
2024/02/28 14:41:04;;;;;;;2.30;2.07;;;;;;;31.33;17.58;99390.81;5153307;27;42395;-88
2024/02/28 14:43:31;;;;;;;2.63;2.43;;;;;;;30.38;18.11;99364.88;5142534;27;40627;-89
2024/02/28 14:45:59;;;;;;;3.77;2.80;;;;;;;29.29;18.09;99369.66;5174931;27;41836;-84
2024/02/28 14:48:27;;;;;;;2.50;2.10;;;;;;;28.21;18.80;99372.91;5173712;27;43007;-85
2024/02/28 14:50:56;;;;;;;3.07;2.50;;;;;;;27.08;20.12;99380.78;5153246;27;42391;-85
2024/02/28 14:53:24;;;;;;;2.53;2.27;;;;;;;26.39;20.79;99372.88;5155909;27;39866;-85
2024/02/28 14:55:53;;;;;;;2.30;2.10;;;;;;;25.35;21.40;99346.28;5152950;27;40749;-84
2024/02/28 14:58:20;;;;;;;3.03;1.80;;;;;;;24.35;22.21;99357.81;5154885;27;43288;-81
2024/02/28 15:00:48;;;;;;;2.63;1.90;;;;;;;23.40;22.82;99350.25;5153070;27;44170;-88
2024/02/28 15:03:16;;;;;;;2.30;1.83;;;;;;;22.38;24.04;99310.63;5153995;27;39998;-84
2024/02/28 15:05:45;;;;;;;4.50;2.47;;;;;;;22.11;24.55;99348.56;5155416;27;43268;-90
2024/02/28 15:08:13;;;;;;;3.77;2.77;;;;;;;21.48;25.44;99348.66;5175127;27;43728;-83
2024/02/28 15:10:41;;;;;;;2.80;2.53;;;;;;;20.92;26.25;99346.13;5152609;27;40905;-83
2024/02/28 15:13:09;;;;;;;2.53;2.20;;;;;;;20.42;26.69;99317.72;5135325;27;39179;-83
2024/02/28 15:15:36;;;;;;;2.90;2.33;;;;;;;20.20;27.26;99339.56;5167753;27;42747;-84
2024/02/28 15:18:04;;;;;;;3.60;2.40;;;;;;;19.71;27.57;99321.81;5156298;27;42921;-82
2024/02/28 15:20:32;;;;;;;2.70;2.30;;;;;;;19.47;27.98;99335.63;5173927;27;43101;-83
2024/02/28 15:23:00;;;;;;;2.27;2.07;;;;;;;19.07;28.42;99326.78;5173392;27;39092;-85
2024/02/28 15:25:29;;;;;;;2.23;2.03;;;;;;;18.83;28.59;99336.06;5172734;27;41705;-83
2024/02/28 15:27:57;;;;;;;2.03;1.87;;;;;;;18.54;29.05;99329.72;5173365;27;41696;-83
2024/02/28 15:30:24;;;;;;;2.93;2.13;;;;;;;18.13;29.21;99310.03;5172685;27;43428;-82
2024/02/28 15:32:52;;;;;;;2.83;2.10;;;;;;;17.72;29.49;99288.59;5173569;27;40887;-82
2024/02/28 15:35:20;;;;;;;2.40;2.20;;;;;;;17.60;30.05;99309.22;5172432;27;42643;-81
2024/02/28 15:37:48;;;;;;;3.40;1.80;;;;;;;17.35;30.36;99312.22;5173519;27;43284;-80
2024/02/28 15:40:16;;;;;;;2.37;2.10;;;;;;;17.12;30.29;99312.31;5152692;27;42999;-82
2024/02/28 15:42:45;;;;;;;4.47;2.00;;;;;;;16.85;31.07;99307.38;5173860;27;40132;-82
2024/02/28 15:45:14;;;;;;;2.67;2.17;;;;;;;16.70;31.25;99310.44;5172219;27;41762;-82
2024/02/28 15:47:41;;;;;;;2.23;2.00;;;;;;;16.49;31.24;99311.16;5155334;27;43616;-81
2024/02/28 15:50:10;;;;;;;2.97;2.20;;;;;;;16.29;32.37;99289.66;5172527;27;42899;-80
2024/02/28 15:52:37;;;;;;;3.73;2.27;;;;;;;15.99;33.16;99275.06;5174503;27;40979;-83
2024/02/28 15:55:05;;;;;;;3.03;2.00;;;;;;;15.92;33.77;99281.84;5172727;27;41935;-83
2024/02/28 15:57:33;;;;;;;2.57;2.00;;;;;;;15.69;34.22;99288.13;5155309;27;43112;-81
2024/02/28 16:00:02;;;;;;;2.67;2.03;;;;;;;15.16;34.34;99242.28;5155840;27;42622;-83
2024/02/28 16:02:39;;;;;;;2.60;2.40;;;;;;;15.28;34.46;99292.06;5173704;27;41811;-83
2024/02/28 16:05:07;;;;;;;2.20;1.70;;;;;;;15.14;34.78;99294.91;5173647;27;41564;-84
2024/02/28 16:07:35;;;;;;;2.10;1.90;;;;;;;14.92;34.84;99294.78;5173519;27;42073;-80
2024/02/28 16:10:03;;;;;;;2.33;2.00;;;;;;;14.68;35.16;99284.09;5156228;27;41578;-82
2024/02/28 16:12:30;;;;;;;2.77;1.80;;;;;;;14.65;35.63;99298.50;5173413;27;40155;-81
2024/02/28 16:14:57;;;;;;;2.37;1.90;;;;;;;14.52;35.77;99296.81;5155938;27;43005;-82
2024/02/28 16:17:27;;;;;;;2.67;1.97;;;;;;;14.39;36.47;99294.16;5172617;27;41892;-82
2024/02/28 16:19:54;;;;;;;3.77;2.10;;;;;;;14.17;36.38;99284.16;5173647;27;41395;-80
2024/02/28 16:22:22;;;;;;;3.00;2.33;;;;;;;14.10;36.50;99296.19;5152171;27;39342;-83
2024/02/28 16:24:49;;;;;;;3.30;1.90;;;;;;;13.91;37.05;99287.78;5152850;27;41402;-82
2024/02/28 16:27:17;;;;;;;2.40;1.93;;;;;;;13.68;37.85;99270.75;5171939;27;43064;-82
2024/02/28 16:29:45;;;;;;;2.47;1.67;;;;;;;13.66;37.66;99288.63;5171539;27;43439;-81
2024/02/28 16:32:12;;;;;;;1.93;1.70;;;;;;;13.45;37.24;99292.75;5172911;27;39979;-83
2024/02/28 16:34:41;;;;;;;3.63;2.50;;;;;;;13.27;37.08;99287.69;5155390;27;40751;-83
2024/02/28 16:37:09;;;;;;;4.10;2.00;;;;;;;13.15;37.34;99290.31;5151109;27;43518;-81
2024/02/28 16:39:36;;;;;;;3.43;2.40;;;;;;;13.13;37.72;99308.97;5150858;27;42516;-84
2024/02/28 16:42:04;;;;;;;2.80;2.40;;;;;;;12.98;38.48;99296.72;5150303;27;40897;-84
2024/02/28 16:44:32;;;;;;;4.00;2.67;;;;;;;12.86;38.26;99306.31;5172112;27;41958;-80
2024/02/28 16:47:02;;;;;;;3.57;2.20;;;;;;;12.65;38.25;99298.88;5171495;27;41921;-81
2024/02/28 16:49:30;;;;;;;3.73;2.63;;;;;;;12.64;38.25;99315.75;5173295;27;41884;-79
2024/02/28 16:51:59;;;;;;;2.90;2.27;;;;;;;12.51;38.63;99315.69;5176133;27;40154;-81
2024/02/28 16:54:26;;;;;;;2.43;2.03;;;;;;;12.26;39.01;99303.09;5174759;27;41095;-82
2024/02/28 16:56:53;;;;;;;2.83;2.20;;;;;;;12.23;39.30;99316.56;5175937;27;42905;-81
2024/02/28 16:59:21;;;;;;;1.93;1.57;;;;;;;12.11;39.57;99320.00;5175669;27;41540;-80
2024/02/28 17:01:50;;;;;;;2.37;2.07;;;;;;;11.97;39.99;99314.66;5177591;27;40703;-79
2024/02/28 17:04:17;;;;;;;2.93;1.40;;;;;;;11.83;40.34;99315.50;5155155;27;41010;-78
2024/02/28 17:06:44;;;;;;;4.20;2.17;;;;;;;11.69;39.94;99313.63;5169560;27;43234;-83
2024/02/28 17:09:13;;;;;;;3.10;2.33;;;;;;;11.57;40.38;99306.41;5159085;27;42324;-78
2024/02/28 17:11:41;;;;;;;2.90;1.80;;;;;;;11.46;40.57;99320.31;5178008;27;39975;-82
2024/02/28 17:14:09;;;;;;;4.40;2.57;;;;;;;11.19;40.55;99298.03;5154674;27;40767;-78
2024/02/28 17:16:37;;;;;;;3.27;2.33;;;;;;;11.16;40.39;99306.16;5167013;27;41966;-80
2024/02/28 17:19:04;;;;;;;3.40;2.47;;;;;;;11.16;40.58;99327.38;5175918;27;41069;-81
2024/02/28 17:21:33;;;;;;;5.03;2.40;;;;;;;10.92;41.34;99308.44;5154884;27;38942;-78
2024/02/28 17:24:01;;;;;;;2.43;1.93;;;;;;;10.95;42.15;99323.31;5146733;27;40594;-79
2024/02/28 17:26:29;;;;;;;3.53;2.00;;;;;;;10.72;42.08;99304.25;5154372;27;44776;-79
2024/02/28 17:28:58;;;;;;;3.07;2.00;;;;;;;10.71;42.92;99326.38;5154576;27;42224;-78
2024/02/28 17:31:25;;;;;;;2.73;1.90;;;;;;;10.60;42.62;99326.13;5165414;27;40041;-79
2024/02/28 17:33:52;;;;;;;3.70;2.87;;;;;;;10.54;42.98;99323.81;5174910;27;40794;-78
2024/02/28 17:36:20;;;;;;;2.93;2.07;;;;;;;10.48;43.58;99324.16;5175027;27;41793;-79
2024/02/28 17:38:47;;;;;;;4.90;2.33;;;;;;;10.41;44.38;99320.97;5176306;27;42462;-79
2024/02/28 17:41:15;;;;;;;3.07;2.37;;;;;;;10.24;43.97;99305.16;5175838;27;40070;-81
2024/02/28 17:43:44;;;;;;;3.63;2.50;;;;;;;10.27;43.57;99325.28;5176759;27;41583;-80
2024/02/28 17:46:11;;;;;;;3.23;2.00;;;;;;;10.18;44.11;99326.66;5158133;27;42214;-82
2024/02/28 17:48:41;;;;;;;6.03;3.73;;;;;;;10.12;44.43;99326.97;5158235;27;42502;-82
2024/02/28 17:51:08;;;;;;;7.30;3.77;;;;;;;9.91;44.09;99318.34;5154282;27;39170;-80
2024/02/28 17:53:36;;;;;;;6.03;3.13;;;;;;;10.00;44.14;99339.06;5154371;27;42984;-82
2024/02/28 17:56:06;;;;;;;3.57;2.70;;;;;;;9.78;44.43;99317.28;5151530;27;41561;-83
2024/02/28 17:58:33;;;;;;;5.73;3.07;;;;;;;9.86;44.05;99343.34;5154329;27;41415;-83
2024/02/28 18:01:05;;;;;;;4.87;3.30;;;;;;;9.78;45.01;99343.72;5172213;27;39985;-80
2024/02/28 18:03:33;;;;;;;3.80;3.10;;;;;;;9.72;45.52;99333.47;5176182;27;40717;-80
2024/02/28 18:06:00;;;;;;;4.93;3.47;;;;;;;9.66;45.66;99331.13;5175504;27;42865;-79
2024/02/28 18:08:28;;;;;;;5.37;2.90;;;;;;;9.60;45.27;99334.09;5176003;27;40779;-79
2024/02/28 18:10:56;;;;;;;4.67;3.17;;;;;;;9.53;45.53;99335.31;5158581;27;38981;-79
2024/02/28 18:13:23;;;;;;;3.23;2.60;;;;;;;9.36;45.57;99321.19;5175998;27;41855;-80
2024/02/28 18:15:50;;;;;;;3.40;2.57;;;;;;;9.38;45.74;99338.75;5175795;27;44063;-84
2024/02/28 18:18:19;;;;;;;5.33;2.90;;;;;;;9.33;46.65;99333.69;5177663;27;42191;-86
2024/02/28 18:20:47;;;;;;;5.23;3.80;;;;;;;9.25;46.63;99327.94;5176021;27;38992;-84
2024/02/28 18:23:15;;;;;;;5.90;4.37;;;;;;;9.22;46.39;99342.16;5176604;27;40633;-88
2024/02/28 18:25:42;;;;;;;6.40;4.00;;;;;;;9.04;48.69;99311.34;5176488;27;42786;-81
2024/02/28 18:28:10;;;;;;;6.17;4.20;;;;;;;9.02;49.42;99302.66;5176420;27;43099;-80
2024/02/28 18:30:38;;;;;;;6.83;4.10;;;;;;;9.09;48.99;99326.97;5175645;27;39828;-82
2024/02/28 18:33:05;;;;;;;6.30;4.27;;;;;;;9.04;49.21;99323.69;5175476;27;42177;-83
2024/02/28 18:35:37;;;;;;;6.93;4.77;;;;;;;8.98;49.72;99320.44;5158212;27;41194;-81
2024/02/28 18:38:05;;;;;;;9.07;5.70;;;;;;;8.93;50.56;99311.88;5173986;27;43456;-86
2024/02/28 18:40:32;;;;;;;7.43;5.00;;;;;;;8.84;49.88;99311.47;5156596;27;39494;-85
2024/02/28 18:43:00;;;;;;;8.63;5.63;;;;;;;8.87;49.34;99322.75;5174075;27;42680;-86
2024/02/28 18:45:27;;;;;;;8.00;4.90;;;;;;;8.85;49.48;99329.88;5174561;27;42856;-80
2024/02/28 18:47:55;;;;;;;9.03;5.73;;;;;;;8.78;50.18;99327.63;5153550;27;41365;-84
2024/02/28 18:50:24;;;;;;;8.37;5.90;;;;;;;8.77;50.42;99326.75;5153789;27;40169;-84
2024/02/28 18:52:53;;;;;;;8.80;5.87;;;;;;;8.74;52.19;99312.84;5171607;27;41952;-83
2024/02/28 18:55:24;;;;;;;8.77;5.60;;;;;;;8.72;52.34;99314.69;5174480;27;41495;-81
2024/02/28 18:57:53;;;;;;;9.13;5.90;;;;;;;8.70;51.61;99320.03;5171150;27;43082;-85
2024/02/28 19:00:22;;;;;;;8.23;5.83;;;;;;;8.61;51.61;99315.19;5175203;27;38933;-86
2024/02/28 19:02:50;;;;;;;8.37;5.60;;;;;;;8.64;52.70;99330.91;5179856;27;41921;-83
2024/02/28 19:05:18;;;;;;;10.23;6.17;;;;;;;8.49;51.77;99321.06;5179410;27;43211;-84
2024/02/28 19:07:46;;;;;;;10.23;6.83;;;;;;;8.50;54.10;99318.34;5179942;27;42474;-88
2024/02/28 19:10:15;;;;;;;9.10;6.70;;;;;;;8.55;53.42;99331.31;5180187;27;40121;-85
2024/02/28 19:12:43;;;;;;;10.87;7.43;;;;;;;8.51;55.96;99324.50;5179016;27;41132;-82
2024/02/28 19:15:11;;;;;;;13.60;7.23;;;;;;;8.50;55.41;99334.19;5178273;27;42889;-84
2024/02/28 19:17:39;;;;;;;9.83;6.97;;;;;;;8.50;56.87;99328.06;5153616;27;43178;-86
2024/02/28 19:20:08;;;;;;;11.90;8.23;;;;;;;8.40;58.17;99313.56;5153392;27;39078;-87
2024/02/28 19:22:36;;;;;;;9.87;6.73;;;;;;;8.48;56.63;99329.91;5149386;27;43984;-81
2024/02/28 19:25:04;;;;;;;13.33;8.10;;;;;;;8.32;58.28;99302.50;5172199;27;43400;-84
2024/02/28 19:27:33;;;;;;;8.73;6.57;;;;;;;8.34;57.42;99321.75;5172133;27;41480;-82
2024/02/28 19:30:01;;;;;;;11.60;7.53;;;;;;;8.40;59.29;99326.78;5156371;27;39685;-82
2024/02/28 19:32:28;;;;;;;13.00;7.93;;;;;;;8.37;60.36;99326.91;5165701;27;40758;-83
2024/02/28 19:34:56;;;;;;;11.37;7.57;;;;;;;8.35;61.46;99328.75;5161765;27;42002;-84
2024/02/28 19:37:24;;;;;;;13.50;8.67;;;;;;;8.31;60.25;99338.56;5156392;27;42271;-82
2024/02/28 19:40:07;;;;;;;13.03;8.53;;;;;;;8.25;60.33;99334.44;5175806;27;40483;-82
2024/02/28 19:42:36;;;;;;;13.20;8.40;;;;;;;7.88;61.72;99286.88;5171146;27;42380;-82
2024/02/28 19:45:04;;;;;;;13.20;8.53;;;;;;;8.16;63.09;99329.53;5173737;27;43535;-81
2024/02/28 19:47:32;;;;;;;13.80;9.03;;;;;;;8.12;61.80;99338.53;5174141;27;42341;-82
2024/02/28 19:50:00;;;;;;;14.13;9.30;;;;;;;8.08;61.16;99347.50;5173744;27;39029;-81
2024/02/28 19:52:27;;;;;;;11.73;7.77;;;;;;;7.89;61.95;99309.69;5174150;27;41762;-82
2024/02/28 19:54:55;;;;;;;14.70;8.67;;;;;;;7.91;62.12;99326.31;5174020;27;41777;-83
2024/02/28 19:57:23;;;;;;;15.50;9.40;;;;;;;7.96;63.54;99336.66;5173785;27;42961;-83
2024/02/28 19:59:53;;;;;;;11.73;8.53;;;;;;;7.91;64.52;99334.22;5156656;27;39010;-83
2024/02/28 20:02:22;;;;;;;12.00;8.17;;;;;;;7.88;63.40;99340.50;5174635;27;41563;-81
2024/02/28 20:04:50;;;;;;;12.40;8.50;;;;;;;7.83;63.50;99339.81;5156875;27;44047;-83
2024/02/28 20:07:17;;;;;;;11.57;8.03;;;;;;;7.81;62.85;99349.56;5157638;27;41674;-83
2024/02/28 20:09:45;;;;;;;13.90;7.83;;;;;;;7.67;63.27;99332.63;5157031;27;40578;-83
2024/02/28 20:12:13;;;;;;;13.57;9.23;;;;;;;7.39;65.37;99277.63;5175623;27;41987;-82